createdAt,value
2023-02-18T00:00:56.673Z,4.50
2023-02-18T00:04:00.274Z,4.13
2023-02-18T00:07:02.864Z,4.27
2023-02-18T00:10:09.309Z,4.87
2023-02-18T00:13:11.928Z,4.27
2023-02-18T00:16:14.563Z,4.33
2023-02-18T00:19:18.981Z,4.50
2023-02-18T00:22:21.567Z,4.17
2023-02-18T00:25:25.545Z,3.37
2023-02-18T00:28:28.143Z,4.10
2023-02-18T00:31:33.482Z,3.50
2023-02-18T00:34:36.114Z,4.77
2023-02-18T00:37:38.691Z,3.97
2023-02-18T00:40:43.249Z,4.40
2023-02-18T00:43:45.962Z,4.17
2023-02-18T00:46:49.688Z,3.13
2023-02-18T00:49:52.392Z,3.53
2023-02-18T00:52:55.008Z,4.07
2023-02-18T00:55:59.425Z,3.63
2023-02-18T00:59:02.067Z,3.80
2023-02-18T01:02:04.747Z,4.20
2023-02-18T01:05:07.424Z,4.47
2023-02-18T01:08:11.736Z,4.43
2023-02-18T01:11:15.866Z,4.53
2023-02-18T01:14:18.491Z,4.33
2023-02-18T01:17:21.093Z,3.83
2023-02-18T01:20:24.028Z,4.20
2023-02-18T01:23:26.692Z,4.57
2023-02-18T01:26:30.692Z,3.57
2023-02-18T01:29:33.272Z,3.70
2023-02-18T01:32:35.878Z,3.53
2023-02-18T01:35:39.666Z,3.97
2023-02-18T01:38:42.629Z,3.53
2023-02-18T01:41:46.605Z,3.90
2023-02-18T01:44:50.431Z,4.00
2023-02-18T01:47:53.282Z,3.67
2023-02-18T01:51:03.157Z,4.13
2023-02-18T01:54:09.286Z,3.83
2023-02-18T01:57:15.712Z,3.97
2023-02-18T02:00:21.496Z,3.23
2023-02-18T02:03:24.085Z,3.77
2023-02-18T02:06:27.214Z,4.07
2023-02-18T02:09:31.998Z,4.00
2023-02-18T02:12:48.588Z,3.77
2023-02-18T02:15:56.160Z,3.30
2023-02-18T02:19:10.153Z,3.40
2023-02-18T02:22:49.084Z,3.70
2023-02-18T02:26:17.751Z,3.63
2023-02-18T02:29:47.572Z,3.77
2023-02-18T02:33:15.224Z,3.97
2023-02-18T02:36:24.923Z,3.23
2023-02-18T02:39:33.917Z,3.50
2023-02-18T02:42:47.840Z,3.80
2023-02-18T02:45:56.529Z,3.90
2023-02-18T02:49:04.749Z,3.07
2023-02-18T02:52:12.495Z,3.13
2023-02-18T02:55:15.142Z,3.53
2023-02-18T02:58:19.509Z,3.93
2023-02-18T03:01:35.084Z,3.47
2023-02-18T03:04:55.440Z,3.03
2023-02-18T03:08:10.230Z,2.80
2023-02-18T03:11:15.550Z,3.00
2023-02-18T03:14:28.713Z,3.97
2023-02-18T03:17:35.935Z,3.60
2023-02-18T03:20:42.147Z,4.07
2023-02-18T03:23:54.788Z,3.87
2023-02-18T03:27:01.801Z,2.53
2023-02-18T03:30:08.530Z,3.10
2023-02-18T03:33:13.912Z,4.47
2023-02-18T03:36:16.920Z,3.10
2023-02-18T03:39:24.214Z,3.70
2023-02-18T03:42:28.430Z,3.50
2023-02-18T03:45:31.056Z,2.77
2023-02-18T03:48:33.643Z,2.83
2023-02-18T03:51:36.244Z,3.00
2023-02-18T03:54:40.252Z,2.93
2023-02-18T03:57:42.856Z,3.40
2023-02-18T04:00:45.429Z,2.50
2023-02-18T04:03:48.032Z,2.30
2023-02-18T04:06:50.610Z,2.70
2023-02-18T04:09:54.718Z,2.70
2023-02-18T04:12:57.283Z,2.47
2023-02-18T04:15:59.884Z,2.47
2023-02-18T04:19:02.471Z,2.47
2023-02-18T04:22:05.051Z,2.73
2023-02-18T04:25:09.730Z,2.50
2023-02-18T04:28:15.274Z,2.93
2023-02-18T04:31:18.276Z,2.10
2023-02-18T04:34:21.156Z,2.63
2023-02-18T04:37:23.750Z,2.23
2023-02-18T04:40:30.505Z,2.70
2023-02-18T04:43:33.126Z,2.67
2023-02-18T04:46:35.739Z,2.30
2023-02-18T04:49:38.530Z,2.50
2023-02-18T04:52:41.091Z,2.20
2023-02-18T04:55:45.044Z,2.40
2023-02-18T04:58:47.886Z,2.40
2023-02-18T05:01:50.511Z,2.00
2023-02-18T05:04:53.113Z,2.40
2023-02-18T05:07:55.688Z,2.07
2023-02-18T05:10:59.693Z,2.10
2023-02-18T05:14:02.382Z,2.50
2023-02-18T05:17:05.009Z,2.00
2023-02-18T05:20:09.997Z,3.00
2023-02-18T05:23:12.724Z,2.23
2023-02-18T05:26:16.659Z,2.53
2023-02-18T05:29:19.253Z,2.70
2023-02-18T05:32:21.822Z,2.07
2023-02-18T05:35:24.437Z,2.13
2023-02-18T05:38:27.073Z,2.23
2023-02-18T05:41:31.059Z,2.00
2023-02-18T05:44:33.831Z,2.40
2023-02-18T05:47:36.421Z,2.10
2023-02-18T05:50:39.118Z,2.13
2023-02-18T05:53:41.700Z,2.50
2023-02-18T05:56:45.650Z,2.67
2023-02-18T05:59:48.292Z,2.77
2023-02-18T06:02:50.884Z,2.00
2023-02-18T06:05:54.029Z,2.43
2023-02-18T06:08:56.700Z,2.27
2023-02-18T06:12:00.645Z,2.40
2023-02-18T06:15:03.232Z,2.23
2023-02-18T06:18:06.341Z,2.40
2023-02-18T06:21:09.048Z,2.00
2023-02-18T06:24:11.757Z,2.07
2023-02-18T06:27:15.686Z,2.23
2023-02-18T06:30:18.661Z,1.77
2023-02-18T06:33:21.279Z,1.57
2023-02-18T06:36:23.864Z,2.30
2023-02-18T06:39:26.453Z,1.90
2023-02-18T06:42:30.415Z,1.97
2023-02-18T06:45:32.995Z,2.30
2023-02-18T06:48:35.777Z,2.17
2023-02-18T06:51:38.377Z,2.33
2023-02-18T06:54:40.959Z,1.83
2023-02-18T06:57:44.974Z,1.93
2023-02-18T07:00:47.648Z,2.30
2023-02-18T07:03:50.445Z,1.70
2023-02-18T07:06:53.180Z,2.20
2023-02-18T07:09:55.794Z,2.27
2023-02-18T07:12:59.736Z,2.93
2023-02-18T07:16:02.352Z,2.43
2023-02-18T07:19:05.002Z,1.90
2023-02-18T07:22:07.619Z,2.67
2023-02-18T07:25:10.220Z,2.30
2023-02-18T07:28:14.403Z,2.23
2023-02-18T07:31:17.684Z,2.17
2023-02-18T07:34:20.355Z,2.30
2023-02-18T07:37:22.990Z,2.77
2023-02-18T07:40:25.605Z,2.47
2023-02-18T07:43:29.597Z,2.27
2023-02-18T07:46:32.209Z,2.60
2023-02-18T07:49:35.639Z,2.63
2023-02-18T07:52:38.248Z,2.40
2023-02-18T07:55:52.717Z,2.10
2023-02-18T07:58:56.626Z,2.87
2023-02-18T08:01:59.197Z,2.70
2023-02-18T08:05:01.813Z,2.30
2023-02-18T08:08:04.749Z,2.50
2023-02-18T08:11:18.377Z,2.50
2023-02-18T08:14:23.051Z,2.87
2023-02-18T08:17:25.734Z,2.87
2023-02-18T08:20:30.496Z,2.63
2023-02-18T08:23:33.410Z,2.10
2023-02-18T08:26:36.048Z,2.80
2023-02-18T08:29:39.978Z,2.23
2023-02-18T08:32:42.581Z,2.70
2023-02-18T08:35:45.771Z,2.90
2023-02-18T08:38:48.349Z,2.60
2023-02-18T08:41:50.949Z,2.77
2023-02-18T08:44:54.897Z,2.80
2023-02-18T08:48:18.158Z,2.37
2023-02-18T08:51:23.153Z,2.20
2023-02-18T08:54:25.810Z,3.43
2023-02-18T08:57:29.033Z,2.77
2023-02-18T09:00:33.801Z,3.23
2023-02-18T09:03:36.833Z,2.30
2023-02-18T09:06:39.804Z,2.63
2023-02-18T09:09:42.903Z,3.03
2023-02-18T09:12:45.563Z,2.40
2023-02-18T09:15:57.568Z,2.93
2023-02-18T09:19:00.173Z,3.17
2023-02-18T09:22:02.795Z,2.90
2023-02-18T09:25:07.272Z,2.60
2023-02-18T09:28:09.853Z,2.40
2023-02-18T09:31:16.142Z,2.53
2023-02-18T09:34:18.846Z,2.67
2023-02-18T09:37:21.420Z,2.70
2023-02-18T09:40:30.004Z,2.43
2023-02-18T09:43:37.428Z,2.70
2023-02-18T09:46:47.575Z,2.47
2023-02-18T09:49:54.086Z,2.30
2023-02-18T09:52:59.447Z,2.10
2023-02-18T09:56:02.914Z,2.73
2023-02-18T09:59:09.972Z,2.50
2023-02-18T10:02:17.430Z,2.63
2023-02-18T10:05:20.508Z,2.30
2023-02-18T10:08:26.824Z,2.27
2023-02-18T10:11:32.224Z,1.77
2023-02-18T10:14:35.888Z,2.40
2023-02-18T10:17:40.048Z,2.37
2023-02-18T10:20:42.880Z,3.90
2023-02-18T10:23:54.091Z,3.40
2023-02-18T10:26:57.596Z,2.43
2023-02-18T10:30:10.890Z,2.00
2023-02-18T10:33:32.362Z,2.20
2023-02-18T10:36:38.825Z,2.00
2023-02-18T10:39:53.670Z,1.97
2023-02-18T10:43:07.166Z,1.70
2023-02-18T10:46:22.997Z,2.10
2023-02-18T10:49:43.199Z,2.40
2023-02-18T10:52:50.059Z,2.40
2023-02-18T10:55:54.475Z,2.53
2023-02-18T10:59:02.734Z,2.30
2023-02-18T11:02:14.880Z,2.17
2023-02-18T11:05:25.806Z,2.00
2023-02-18T11:08:30.679Z,2.00
2023-02-18T11:11:35.984Z,2.00
2023-02-18T11:14:42.572Z,2.20
2023-02-18T11:17:47.453Z,2.27
2023-02-18T11:20:57.816Z,2.33
2023-02-18T11:24:11.096Z,2.60
2023-02-18T11:27:22.040Z,2.50
2023-02-18T11:30:27.805Z,2.50
2023-02-18T11:33:35.568Z,2.70
2023-02-18T11:36:39.975Z,3.10
2023-02-18T11:39:45.502Z,2.90
2023-02-18T11:42:48.452Z,3.60
2023-02-18T11:46:09.706Z,3.30
2023-02-18T11:49:23.160Z,3.17
2023-02-18T11:52:29.833Z,2.90
2023-02-18T11:55:32.779Z,3.23
2023-02-18T11:58:41.505Z,3.23
2023-02-18T12:01:47.905Z,2.03
2023-02-18T12:04:55.626Z,2.30
2023-02-18T12:08:04.816Z,1.97
2023-02-18T12:11:13.889Z,1.60
2023-02-18T12:14:19.677Z,1.40
2023-02-18T12:17:43.325Z,1.00
2023-02-18T12:21:05.131Z,1.10
2023-02-18T12:24:25.252Z,1.53
2023-02-18T12:27:36.277Z,1.50
2023-02-18T12:31:00.535Z,1.90
2023-02-18T12:34:19.956Z,1.97
2023-02-18T12:37:44.483Z,1.70
2023-02-18T12:41:09.828Z,1.50
2023-02-18T12:44:35.300Z,1.40
2023-02-18T12:47:50.846Z,1.30
2023-02-18T12:51:10.767Z,1.67
2023-02-18T12:54:28.799Z,1.67
2023-02-18T12:57:40.261Z,2.47
2023-02-18T13:00:58.200Z,2.63
2023-02-18T13:04:24.808Z,3.10
2023-02-18T13:07:51.943Z,2.77
2023-02-18T13:11:15.985Z,2.67
2023-02-18T13:14:23.385Z,3.20
2023-02-18T13:17:29.543Z,3.87
2023-02-18T13:20:37.776Z,2.93
2023-02-18T13:23:46.277Z,3.90
2023-02-18T13:26:54.273Z,3.20
2023-02-18T13:30:11.533Z,3.40
2023-02-18T13:33:21.989Z,3.80
2023-02-18T13:36:37.076Z,3.23
2023-02-18T13:39:48.392Z,3.60
2023-02-18T13:42:53.087Z,3.53
2023-02-18T13:46:11.547Z,3.47
2023-02-18T13:49:14.682Z,3.50
2023-02-18T13:52:21.144Z,3.73
2023-02-18T13:55:28.478Z,3.57
2023-02-18T13:58:37.388Z,3.20
2023-02-18T14:01:44.544Z,3.20
2023-02-18T14:04:54.488Z,3.27
2023-02-18T14:08:12.159Z,3.17
2023-02-18T14:11:42.430Z,3.30
2023-02-18T14:14:45.187Z,3.83
2023-02-18T14:17:51.003Z,2.60
2023-02-18T14:21:04.589Z,2.93
2023-02-18T14:24:10.249Z,3.57
2023-02-18T14:27:18.048Z,3.50
2023-02-18T14:30:26.700Z,2.93
2023-02-18T14:33:32.750Z,2.47
2023-02-18T14:36:42.539Z,2.13
2023-02-18T14:39:55.700Z,1.93
2023-02-18T14:43:08.353Z,1.90
2023-02-18T14:46:20.829Z,1.83
2023-02-18T14:49:38.377Z,1.70
2023-02-18T14:52:44.356Z,1.67
2023-02-18T14:55:50.026Z,2.10
2023-02-18T14:58:57.812Z,1.70
2023-02-18T15:02:00.392Z,1.80
2023-02-18T15:05:19.195Z,2.10
2023-02-18T15:08:23.458Z,2.30
2023-02-18T15:11:36.577Z,2.20
2023-02-18T15:14:41.444Z,2.10
2023-02-18T15:17:49.135Z,2.03
2023-02-18T15:20:53.514Z,2.50
2023-02-18T15:23:59.280Z,2.10
2023-02-18T15:27:04.046Z,2.10
2023-02-18T15:30:21.232Z,2.00
2023-02-18T15:33:24.155Z,1.97
2023-02-18T15:36:28.343Z,1.90
2023-02-18T15:39:32.431Z,1.97
2023-02-18T15:42:38.312Z,1.90
2023-02-18T15:45:44.162Z,2.00
2023-02-18T15:48:51.239Z,1.90
2023-02-18T15:51:58.892Z,2.10
2023-02-18T15:55:04.109Z,1.50
2023-02-18T15:58:10.468Z,1.53
2023-02-18T16:01:27.668Z,1.40
2023-02-18T16:04:34.561Z,1.30
2023-02-18T16:07:53.033Z,1.27
2023-02-18T16:10:58.404Z,1.30
2023-02-18T16:14:01.298Z,1.20
2023-02-18T16:17:16.509Z,1.30
2023-02-18T16:20:27.723Z,1.20
2023-02-18T16:23:43.463Z,1.37
2023-02-18T16:26:47.640Z,1.43
2023-02-18T16:29:52.455Z,1.30
2023-02-18T16:32:55.722Z,1.60
2023-02-18T16:35:58.498Z,1.40
2023-02-18T16:39:02.650Z,1.80
2023-02-18T16:42:11.174Z,1.57
2023-02-18T16:45:14.226Z,2.20
2023-02-18T16:48:20.553Z,2.17
2023-02-18T16:51:27.623Z,2.50
2023-02-18T16:54:31.635Z,2.33
2023-02-18T16:57:34.847Z,2.43
2023-02-18T17:00:38.357Z,2.13
2023-02-18T17:03:41.108Z,2.47
2023-02-18T17:06:45.157Z,2.70
2023-02-18T17:09:49.145Z,2.90
2023-02-18T17:12:51.942Z,2.53
2023-02-18T17:15:56.717Z,2.70
2023-02-18T17:18:59.459Z,2.50
2023-02-18T17:22:02.129Z,2.87
2023-02-18T17:25:13.022Z,3.57
2023-02-18T17:28:18.944Z,4.00
2023-02-18T17:31:26.083Z,6.80
2023-02-18T17:34:30.865Z,4.70
2023-02-18T17:37:33.807Z,5.00
2023-02-18T17:40:37.844Z,3.50
2023-02-18T17:43:40.885Z,5.33
2023-02-18T17:46:44.063Z,5.70
2023-02-18T17:49:46.731Z,5.43
2023-02-18T17:52:49.432Z,8.40
2023-02-18T17:55:53.954Z,9.53
2023-02-18T17:58:56.714Z,9.33
2023-02-18T18:01:59.411Z,7.87
2023-02-18T18:05:02.118Z,5.53
2023-02-18T18:08:06.118Z,7.87
2023-02-18T18:11:15.102Z,6.03
2023-02-18T18:14:17.755Z,4.67
2023-02-18T18:17:20.410Z,4.33
2023-02-18T18:20:24.269Z,4.97
2023-02-18T18:23:28.617Z,9.20
2023-02-18T18:26:32.756Z,6.60
2023-02-18T18:29:35.458Z,6.27
2023-02-18T18:32:38.203Z,5.97
2023-02-18T18:35:40.972Z,9.57
2023-02-18T18:38:43.895Z,11.67
2023-02-18T18:41:48.063Z,12.37
2023-02-18T18:44:50.816Z,14.90
2023-02-18T18:47:54.278Z,8.47
2023-02-18T18:51:00.556Z,8.77
2023-02-18T18:54:03.289Z,6.63
2023-02-18T18:57:07.998Z,7.27
2023-02-18T19:00:12.194Z,7.20
2023-02-18T19:03:15.053Z,8.37
2023-02-18T19:06:18.406Z,7.50
2023-02-18T19:09:21.092Z,9.27
2023-02-18T19:12:25.116Z,9.13
2023-02-18T19:15:28.002Z,8.97
2023-02-18T19:18:33.447Z,9.33
2023-02-18T19:21:36.107Z,9.50
2023-02-18T19:24:38.791Z,9.90
2023-02-18T19:27:44.960Z,9.60
2023-02-18T19:30:47.666Z,10.30
2023-02-18T19:33:51.494Z,9.87
2023-02-18T19:36:55.324Z,9.63
2023-02-18T19:39:57.993Z,9.30
2023-02-18T19:43:02.041Z,9.37
2023-02-18T19:46:09.409Z,9.50
2023-02-18T19:49:12.169Z,9.33
2023-02-18T19:52:14.822Z,9.60
2023-02-18T19:55:17.776Z,9.33
2023-02-18T19:58:21.834Z,9.30
2023-02-18T20:01:24.550Z,8.53
2023-02-18T20:04:27.182Z,9.10
2023-02-18T20:07:31.177Z,9.10
2023-02-18T20:10:34.054Z,8.97
2023-02-18T20:13:38.152Z,9.97
2023-02-18T20:16:41.173Z,10.07
2023-02-18T20:19:43.863Z,10.00
2023-02-18T20:22:46.663Z,10.10
2023-02-18T20:25:49.362Z,9.77
2023-02-18T20:28:53.393Z,10.47
2023-02-18T20:31:56.298Z,11.10
2023-02-18T20:34:59.030Z,11.10
2023-02-18T20:38:01.734Z,10.07
2023-02-18T20:41:05.519Z,15.07
2023-02-18T20:44:09.990Z,12.87
2023-02-18T20:47:13.892Z,10.13
2023-02-18T20:50:16.922Z,9.90
2023-02-18T20:53:19.603Z,10.93
2023-02-18T20:56:23.038Z,13.37
2023-02-18T20:59:29.384Z,16.60
2023-02-18T21:02:32.071Z,12.30
2023-02-18T21:05:34.849Z,10.90
2023-02-18T21:08:40.764Z,10.77
2023-02-18T21:11:44.768Z,9.40
2023-02-18T21:14:48.849Z,9.63
2023-02-18T21:17:51.540Z,9.07
2023-02-18T21:20:54.223Z,9.60
2023-02-18T21:23:56.913Z,9.70
2023-02-18T21:26:59.667Z,9.20
2023-02-18T21:30:04.195Z,8.97
2023-02-18T21:33:07.916Z,8.37
2023-02-18T21:36:13.184Z,7.13
2023-02-18T21:39:16.956Z,6.93
2023-02-18T21:42:19.632Z,7.53
2023-02-18T21:45:23.798Z,9.70
2023-02-18T21:48:43.940Z,9.20
2023-02-18T21:51:57.533Z,12.27
2023-02-18T21:55:00.268Z,14.90
2023-02-18T21:58:02.955Z,21.17
2023-02-18T22:01:07.221Z,20.47
2023-02-18T22:04:09.969Z,10.03
2023-02-18T22:07:13.161Z,8.90
2023-02-18T22:10:16.083Z,9.07
2023-02-18T22:13:18.785Z,9.33
2023-02-18T22:16:23.191Z,8.93
2023-02-18T22:19:26.352Z,7.00
2023-02-18T22:22:29.070Z,7.43
2023-02-18T22:25:31.728Z,6.63
2023-02-18T22:28:34.962Z,6.77
2023-02-18T22:31:39.945Z,7.87
2023-02-18T22:34:42.885Z,12.50
2023-02-18T22:37:45.524Z,10.10
2023-02-18T22:40:50.692Z,8.80
2023-02-18T22:43:55.840Z,7.67
2023-02-18T22:46:59.876Z,7.40
2023-02-18T22:50:02.843Z,6.60
2023-02-18T22:53:05.513Z,7.40
2023-02-18T22:56:10.506Z,8.23
2023-02-18T22:59:14.098Z,7.30
2023-02-18T23:02:18.159Z,7.03
2023-02-18T23:05:20.937Z,7.13
2023-02-18T23:08:23.602Z,7.20
2023-02-18T23:11:26.818Z,6.77
2023-02-18T23:14:30.447Z,6.83
2023-02-18T23:17:34.507Z,7.30
2023-02-18T23:20:54.860Z,7.53
2023-02-18T23:23:57.692Z,6.83
2023-02-18T23:27:00.410Z,6.83
2023-02-18T23:30:03.209Z,6.97
2023-02-18T23:33:07.299Z,6.80
2023-02-18T23:36:12.246Z,6.77
2023-02-18T23:39:18.559Z,7.13
2023-02-18T23:42:21.212Z,7.23
2023-02-18T23:45:24.191Z,6.37
2023-02-18T23:49:23.097Z,7.47
2023-02-18T23:52:27.140Z,7.83
2023-02-18T23:55:29.782Z,7.53
2023-02-18T23:58:32.967Z,7.90
